Aérodrome :
LOGIN :

S'inscrire | Disclaimer

   EN    FR    IT 

 










Légende :    VFR   VFR Marginal   IFR   IFR Intensif   IFR Très Intensif
Visi : 
Plafond : 
>= 8 km
>= 3000ft
5 à 8 km
1000 à 3000 ft
1500m à 5 km
500 à 1000 ft
800 à 1500m
200 à 500 ft
< 800m
< 200 ft
Symboles :   Orages  Brouillard  Fortes neiges  Fortes précipitations  Vent > 20 kt
SIGMETs :   Divers  Orages  Givrage  Turbulence  Onde Orograph.  Cendres Volcan.






- Altitude de l'aérodrome : 5600 ft
- Code IATA : SMV


LSZS - Samedan

DERNIER METAR :
  • 022120Z AUTO 18003KT 9999 NCD 04/02 Q1017

METARs EXPIRÉS :
  • 022050Z AUTO VRB02KT 9999 SCT055 05/02 Q1017
  • 022020Z AUTO VRB02KT 9999 FEW060 08/03 Q1017
  • 021950Z AUTO VRB01KT 9999 FEW055 07/02 Q1017
  • 021920Z AUTO 17002KT 9999 FEW065 09/03 Q1017
  • 021850Z AUTO 03005KT 340V060 9999 NCD 10/02 Q1016

TAF TAF LSZS
Valide du 02 à 15h jusqu'au 03 à 00h UTC


021425Z 0215/0224 36008KT 9999 FEW080 TX18/0215Z
BECMG 0217/0220 VRB03KT CAVOK
ATIS : +41 81 834 93 24



MET'MAP, la Météo Aéronautique d'un coup d'oeil ! - Copyright ORBIFLY Décembre 2007 - Disclaimer

ORBIFLY MET'MAP TEAM :

Programmation & Développement : Alexandra Zaïnal
Sur une idée originale de : Baudouin d'Aumeries
Assistance à la programmation : Marc-Olivier Méhu
Soutien technique & logistique : Manuel Goepfert

Contact : metmap@orbifly.com




SOURCES & CREDITS :

   NOAA